sensor_id;sensor_type;location;lat;lon;timestamp;P1;durP1;ratioP1;P2;durP2;ratioP2
77304;SDS011;66364;52.622;7.746;2023-02-15T00:01:42;18.63;;;16.10;;
77304;SDS011;66364;52.622;7.746;2023-02-15T00:03:43;21.82;;;19.55;;
77304;SDS011;66364;52.622;7.746;2023-02-15T00:05:45;22.10;;;17.55;;
77304;SDS011;66364;52.622;7.746;2023-02-15T00:07:46;18.73;;;16.05;;
77304;SDS011;66364;52.622;7.746;2023-02-15T00:09:48;20.43;;;16.93;;
77304;SDS011;66364;52.622;7.746;2023-02-15T00:11:49;18.10;;;16.20;;
77304;SDS011;66364;52.622;7.746;2023-02-15T00:13:50;17.70;;;14.87;;
77304;SDS011;66364;52.622;7.746;2023-02-15T00:15:51;17.83;;;16.03;;
77304;SDS011;66364;52.622;7.746;2023-02-15T00:17:52;21.07;;;15.75;;
77304;SDS011;66364;52.622;7.746;2023-02-15T00:19:52;18.40;;;16.50;;
77304;SDS011;66364;52.622;7.746;2023-02-15T00:21:53;15.97;;;14.27;;
77304;SDS011;66364;52.622;7.746;2023-02-15T00:23:54;17.77;;;15.37;;
77304;SDS011;66364;52.622;7.746;2023-02-15T00:26:04;16.70;;;14.13;;
77304;SDS011;66364;52.622;7.746;2023-02-15T00:28:10;17.77;;;15.28;;
77304;SDS011;66364;52.622;7.746;2023-02-15T00:30:12;16.57;;;14.85;;
77304;SDS011;66364;52.622;7.746;2023-02-15T00:32:13;17.65;;;14.80;;
77304;SDS011;66364;52.622;7.746;2023-02-15T00:34:15;15.47;;;13.27;;
77304;SDS011;66364;52.622;7.746;2023-02-15T00:36:19;16.90;;;15.18;;
77304;SDS011;66364;52.622;7.746;2023-02-15T00:38:29;16.95;;;14.95;;
77304;SDS011;66364;52.622;7.746;2023-02-15T00:40:32;19.70;;;14.25;;
77304;SDS011;66364;52.622;7.746;2023-02-15T00:42:32;15.60;;;13.90;;
77304;SDS011;66364;52.622;7.746;2023-02-15T00:44:39;18.03;;;16.07;;
77304;SDS011;66364;52.622;7.746;2023-02-15T00:46:40;18.07;;;15.90;;
77304;SDS011;66364;52.622;7.746;2023-02-15T00:48:42;16.23;;;14.63;;
77304;SDS011;66364;52.622;7.746;2023-02-15T00:50:46;18.90;;;14.80;;
77304;SDS011;66364;52.622;7.746;2023-02-15T00:52:49;16.77;;;14.98;;
77304;SDS011;66364;52.622;7.746;2023-02-15T00:54:52;17.98;;;14.58;;
77304;SDS011;66364;52.622;7.746;2023-02-15T00:56:52;17.80;;;15.60;;
77304;SDS011;66364;52.622;7.746;2023-02-15T00:58:53;18.90;;;16.03;;
77304;SDS011;66364;52.622;7.746;2023-02-15T01:00:54;19.85;;;16.82;;
77304;SDS011;66364;52.622;7.746;2023-02-15T01:02:56;19.70;;;16.25;;
77304;SDS011;66364;52.622;7.746;2023-02-15T01:04:58;19.50;;;16.02;;
77304;SDS011;66364;52.622;7.746;2023-02-15T01:06:59;21.53;;;17.80;;
77304;SDS011;66364;52.622;7.746;2023-02-15T01:09:00;18.27;;;15.68;;
77304;SDS011;66364;52.622;7.746;2023-02-15T01:11:03;20.48;;;17.90;;
77304;SDS011;66364;52.622;7.746;2023-02-15T01:13:06;29.05;;;19.20;;
77304;SDS011;66364;52.622;7.746;2023-02-15T01:15:08;17.65;;;16.00;;
77304;SDS011;66364;52.622;7.746;2023-02-15T01:17:10;17.35;;;14.87;;
77304;SDS011;66364;52.622;7.746;2023-02-15T01:19:11;16.90;;;15.20;;
77304;SDS011;66364;52.622;7.746;2023-02-15T01:21:18;16.90;;;15.20;;
77304;SDS011;66364;52.622;7.746;2023-02-15T01:23:17;16.93;;;15.23;;
77304;SDS011;66364;52.622;7.746;2023-02-15T01:25:18;16.25;;;14.70;;
77304;SDS011;66364;52.622;7.746;2023-02-15T01:27:21;19.50;;;16.80;;
77304;SDS011;66364;52.622;7.746;2023-02-15T01:29:22;18.50;;;15.80;;
77304;SDS011;66364;52.622;7.746;2023-02-15T01:31:23;22.43;;;16.80;;
77304;SDS011;66364;52.622;7.746;2023-02-15T01:33:25;20.72;;;17.87;;
77304;SDS011;66364;52.622;7.746;2023-02-15T01:35:26;18.57;;;16.42;;
77304;SDS011;66364;52.622;7.746;2023-02-15T01:37:29;21.87;;;17.60;;
77304;SDS011;66364;52.622;7.746;2023-02-15T01:39:33;17.10;;;15.30;;
77304;SDS011;66364;52.622;7.746;2023-02-15T01:41:34;17.10;;;15.35;;
77304;SDS011;66364;52.622;7.746;2023-02-15T01:43:39;16.90;;;15.15;;
77304;SDS011;66364;52.622;7.746;2023-02-15T01:45:46;18.48;;;16.50;;
77304;SDS011;66364;52.622;7.746;2023-02-15T01:47:50;16.27;;;14.50;;
77304;SDS011;66364;52.622;7.746;2023-02-15T01:50:17;18.10;;;16.20;;
77304;SDS011;66364;52.622;7.746;2023-02-15T01:52:20;17.92;;;16.02;;
77304;SDS011;66364;52.622;7.746;2023-02-15T01:54:22;20.77;;;18.23;;
77304;SDS011;66364;52.622;7.746;2023-02-15T01:56:31;17.05;;;15.25;;
77304;SDS011;66364;52.622;7.746;2023-02-15T01:58:31;17.15;;;15.38;;
77304;SDS011;66364;52.622;7.746;2023-02-15T02:00:34;16.23;;;14.50;;
77304;SDS011;66364;52.622;7.746;2023-02-15T02:02:36;17.98;;;15.85;;
77304;SDS011;66364;52.622;7.746;2023-02-15T02:04:39;17.82;;;16.00;;
77304;SDS011;66364;52.622;7.746;2023-02-15T02:06:42;16.82;;;15.13;;
77304;SDS011;66364;52.622;7.746;2023-02-15T02:08:46;18.02;;;16.23;;
77304;SDS011;66364;52.622;7.746;2023-02-15T02:12:54;16.90;;;15.15;;
77304;SDS011;66364;52.622;7.746;2023-02-15T02:15:04;19.60;;;17.50;;
77304;SDS011;66364;52.622;7.746;2023-02-15T02:17:12;17.50;;;15.68;;
77304;SDS011;66364;52.622;7.746;2023-02-15T02:30:46;16.67;;;14.93;;
77304;SDS011;66364;52.622;7.746;2023-02-15T02:33:20;17.62;;;15.32;;
77304;SDS011;66364;52.622;7.746;2023-02-15T02:35:41;19.00;;;16.40;;
77304;SDS011;66364;52.622;7.746;2023-02-15T02:40:27;17.90;;;16.02;;
77304;SDS011;66364;52.622;7.746;2023-02-15T02:42:40;17.50;;;15.08;;
77304;SDS011;66364;52.622;7.746;2023-02-15T02:44:47;16.73;;;14.50;;
77304;SDS011;66364;52.622;7.746;2023-02-15T02:49:02;18.57;;;16.57;;
77304;SDS011;66364;52.622;7.746;2023-02-15T02:51:04;16.80;;;14.45;;
77304;SDS011;66364;52.622;7.746;2023-02-15T02:53:04;20.30;;;18.00;;
77304;SDS011;66364;52.622;7.746;2023-02-15T02:55:11;20.72;;;17.60;;
77304;SDS011;66364;52.622;7.746;2023-02-15T02:57:10;17.75;;;15.78;;
77304;SDS011;66364;52.622;7.746;2023-02-15T02:59:16;18.42;;;15.50;;
77304;SDS011;66364;52.622;7.746;2023-02-15T03:01:22;23.18;;;16.25;;
77304;SDS011;66364;52.622;7.746;2023-02-15T03:03:29;18.42;;;16.42;;
77304;SDS011;66364;52.622;7.746;2023-02-15T03:05:33;16.37;;;14.78;;
77304;SDS011;66364;52.622;7.746;2023-02-15T03:07:38;18.00;;;15.70;;
77304;SDS011;66364;52.622;7.746;2023-02-15T03:09:44;20.62;;;17.40;;
77304;SDS011;66364;52.622;7.746;2023-02-15T03:11:48;19.42;;;15.08;;
77304;SDS011;66364;52.622;7.746;2023-02-15T03:13:50;18.10;;;16.20;;
77304;SDS011;66364;52.622;7.746;2023-02-15T03:15:51;18.15;;;16.25;;
77304;SDS011;66364;52.622;7.746;2023-02-15T03:17:56;16.50;;;14.80;;
77304;SDS011;66364;52.622;7.746;2023-02-15T03:20:07;17.37;;;15.68;;
77304;SDS011;66364;52.622;7.746;2023-02-15T03:22:15;16.45;;;14.63;;
77304;SDS011;66364;52.622;7.746;2023-02-15T03:27:06;18.12;;;15.88;;
77304;SDS011;66364;52.622;7.746;2023-02-15T03:29:10;19.77;;;17.77;;
77304;SDS011;66364;52.622;7.746;2023-02-15T03:31:14;17.00;;;15.23;;
77304;SDS011;66364;52.622;7.746;2023-02-15T03:33:18;17.80;;;15.95;;
77304;SDS011;66364;52.622;7.746;2023-02-15T03:35:22;18.50;;;16.42;;
77304;SDS011;66364;52.622;7.746;2023-02-15T03:37:28;17.42;;;15.63;;
77304;SDS011;66364;52.622;7.746;2023-02-15T03:39:34;16.20;;;14.58;;
77304;SDS011;66364;52.622;7.746;2023-02-15T03:41:43;15.88;;;13.75;;
77304;SDS011;66364;52.622;7.746;2023-02-15T03:44:04;15.75;;;14.15;;
77304;SDS011;66364;52.622;7.746;2023-02-15T03:46:20;20.27;;;16.45;;
77304;SDS011;66364;52.622;7.746;2023-02-15T03:48:26;18.45;;;15.45;;
77304;SDS011;66364;52.622;7.746;2023-02-15T03:50:30;15.70;;;14.00;;
77304;SDS011;66364;52.622;7.746;2023-02-15T03:52:35;17.20;;;15.40;;
77304;SDS011;66364;52.622;7.746;2023-02-15T03:54:37;17.42;;;15.60;;
77304;SDS011;66364;52.622;7.746;2023-02-15T03:56:40;19.82;;;16.35;;
77304;SDS011;66364;52.622;7.746;2023-02-15T03:58:42;17.65;;;15.72;;
77304;SDS011;66364;52.622;7.746;2023-02-15T04:00:45;19.23;;;15.83;;
77304;SDS011;66364;52.622;7.746;2023-02-15T04:04:53;16.80;;;14.85;;
77304;SDS011;66364;52.622;7.746;2023-02-15T04:06:55;19.62;;;16.48;;
77304;SDS011;66364;52.622;7.746;2023-02-15T04:08:56;20.60;;;17.67;;
77304;SDS011;66364;52.622;7.746;2023-02-15T04:10:57;19.62;;;16.97;;
77304;SDS011;66364;52.622;7.746;2023-02-15T04:12:58;24.27;;;19.23;;
77304;SDS011;66364;52.622;7.746;2023-02-15T04:14:59;18.98;;;16.97;;
77304;SDS011;66364;52.622;7.746;2023-02-15T04:17:00;19.12;;;16.73;;
77304;SDS011;66364;52.622;7.746;2023-02-15T04:19:12;20.48;;;17.50;;
77304;SDS011;66364;52.622;7.746;2023-02-15T04:21:13;19.40;;;16.85;;
77304;SDS011;66364;52.622;7.746;2023-02-15T04:23:14;20.00;;;17.60;;
77304;SDS011;66364;52.622;7.746;2023-02-15T04:25:15;17.85;;;15.65;;
77304;SDS011;66364;52.622;7.746;2023-02-15T04:27:16;20.57;;;16.52;;
77304;SDS011;66364;52.622;7.746;2023-02-15T04:29:18;19.70;;;17.40;;
77304;SDS011;66364;52.622;7.746;2023-02-15T04:31:20;18.10;;;16.12;;
77304;SDS011;66364;52.622;7.746;2023-02-15T04:33:21;18.80;;;16.03;;
77304;SDS011;66364;52.622;7.746;2023-02-15T04:35:22;18.47;;;16.27;;
77304;SDS011;66364;52.622;7.746;2023-02-15T04:37:23;19.17;;;16.77;;
77304;SDS011;66364;52.622;7.746;2023-02-15T04:41:50;21.12;;;16.23;;
77304;SDS011;66364;52.622;7.746;2023-02-15T04:43:50;18.00;;;15.87;;
77304;SDS011;66364;52.622;7.746;2023-02-15T04:45:52;21.00;;;16.67;;
77304;SDS011;66364;52.622;7.746;2023-02-15T04:47:52;18.73;;;16.03;;
77304;SDS011;66364;52.622;7.746;2023-02-15T04:49:53;22.00;;;18.73;;
77304;SDS011;66364;52.622;7.746;2023-02-15T04:51:54;17.40;;;15.58;;
77304;SDS011;66364;52.622;7.746;2023-02-15T04:53:56;16.73;;;14.95;;
77304;SDS011;66364;52.622;7.746;2023-02-15T04:55:57;18.12;;;16.12;;
77304;SDS011;66364;52.622;7.746;2023-02-15T04:57:59;18.65;;;15.85;;
77304;SDS011;66364;52.622;7.746;2023-02-15T05:00:00;20.75;;;16.85;;
77304;SDS011;66364;52.622;7.746;2023-02-15T05:02:01;19.87;;;17.57;;
77304;SDS011;66364;52.622;7.746;2023-02-15T05:04:03;19.80;;;17.60;;
77304;SDS011;66364;52.622;7.746;2023-02-15T05:06:04;19.85;;;16.82;;
77304;SDS011;66364;52.622;7.746;2023-02-15T05:08:05;19.27;;;16.73;;
77304;SDS011;66364;52.622;7.746;2023-02-15T05:10:09;21.45;;;17.73;;
77304;SDS011;66364;52.622;7.746;2023-02-15T05:12:18;19.48;;;17.15;;
77304;SDS011;66364;52.622;7.746;2023-02-15T05:14:19;20.55;;;17.55;;
77304;SDS011;66364;52.622;7.746;2023-02-15T05:16:20;18.55;;;16.48;;
77304;SDS011;66364;52.622;7.746;2023-02-15T05:18:21;19.52;;;17.00;;
77304;SDS011;66364;52.622;7.746;2023-02-15T05:20:44;23.65;;;17.10;;
77304;SDS011;66364;52.622;7.746;2023-02-15T05:22:46;18.42;;;16.30;;
77304;SDS011;66364;52.622;7.746;2023-02-15T05:24:47;18.77;;;15.95;;
77304;SDS011;66364;52.622;7.746;2023-02-15T05:26:48;20.45;;;15.90;;
77304;SDS011;66364;52.622;7.746;2023-02-15T05:28:49;21.07;;;17.95;;
77304;SDS011;66364;52.622;7.746;2023-02-15T05:31:01;19.40;;;15.88;;
77304;SDS011;66364;52.622;7.746;2023-02-15T05:33:27;17.42;;;15.63;;
77304;SDS011;66364;52.622;7.746;2023-02-15T05:35:28;21.73;;;19.32;;
77304;SDS011;66364;52.622;7.746;2023-02-15T05:37:30;26.20;;;20.65;;
77304;SDS011;66364;52.622;7.746;2023-02-15T05:39:32;22.13;;;18.12;;
77304;SDS011;66364;52.622;7.746;2023-02-15T05:41:33;22.45;;;19.52;;
77304;SDS011;66364;52.622;7.746;2023-02-15T05:43:35;26.30;;;20.15;;
77304;SDS011;66364;52.622;7.746;2023-02-15T05:45:37;23.87;;;19.02;;
77304;SDS011;66364;52.622;7.746;2023-02-15T05:47:38;22.62;;;20.00;;
77304;SDS011;66364;52.622;7.746;2023-02-15T05:49:39;20.05;;;16.95;;
77304;SDS011;66364;52.622;7.746;2023-02-15T05:51:41;25.95;;;20.55;;
77304;SDS011;66364;52.622;7.746;2023-02-15T05:53:42;22.75;;;17.62;;
77304;SDS011;66364;52.622;7.746;2023-02-15T05:55:43;24.47;;;17.82;;
77304;SDS011;66364;52.622;7.746;2023-02-15T05:57:45;19.55;;;17.07;;
77304;SDS011;66364;52.622;7.746;2023-02-15T05:59:47;22.93;;;19.20;;
77304;SDS011;66364;52.622;7.746;2023-02-15T06:01:48;22.42;;;19.30;;
77304;SDS011;66364;52.622;7.746;2023-02-15T06:03:49;24.95;;;20.60;;
77304;SDS011;66364;52.622;7.746;2023-02-15T06:05:51;19.52;;;17.48;;
77304;SDS011;66364;52.622;7.746;2023-02-15T06:07:53;22.48;;;18.55;;
77304;SDS011;66364;52.622;7.746;2023-02-15T06:09:53;18.40;;;16.47;;
77304;SDS011;66364;52.622;7.746;2023-02-15T06:11:55;21.70;;;18.42;;
77304;SDS011;66364;52.622;7.746;2023-02-15T06:13:56;19.70;;;17.02;;
77304;SDS011;66364;52.622;7.746;2023-02-15T06:15:57;17.80;;;15.53;;
77304;SDS011;66364;52.622;7.746;2023-02-15T06:17:59;19.87;;;16.07;;
77304;SDS011;66364;52.622;7.746;2023-02-15T06:20:00;20.80;;;17.10;;
77304;SDS011;66364;52.622;7.746;2023-02-15T06:22:01;21.27;;;17.40;;
77304;SDS011;66364;52.622;7.746;2023-02-15T06:24:02;22.07;;;16.75;;
77304;SDS011;66364;52.622;7.746;2023-02-15T06:26:03;21.82;;;17.65;;
77304;SDS011;66364;52.622;7.746;2023-02-15T06:28:04;21.27;;;18.20;;
77304;SDS011;66364;52.622;7.746;2023-02-15T06:30:05;21.42;;;17.05;;
77304;SDS011;66364;52.622;7.746;2023-02-15T06:32:07;24.70;;;19.35;;
77304;SDS011;66364;52.622;7.746;2023-02-15T06:34:09;27.37;;;19.75;;
77304;SDS011;66364;52.622;7.746;2023-02-15T06:36:10;31.42;;;21.23;;
77304;SDS011;66364;52.622;7.746;2023-02-15T06:38:12;24.32;;;21.55;;
77304;SDS011;66364;52.622;7.746;2023-02-15T06:40:13;25.20;;;20.40;;
77304;SDS011;66364;52.622;7.746;2023-02-15T06:42:14;26.10;;;18.80;;
77304;SDS011;66364;52.622;7.746;2023-02-15T06:44:15;24.32;;;19.12;;
77304;SDS011;66364;52.622;7.746;2023-02-15T06:46:16;22.27;;;17.20;;
77304;SDS011;66364;52.622;7.746;2023-02-15T06:48:17;22.90;;;18.52;;
77304;SDS011;66364;52.622;7.746;2023-02-15T06:50:19;20.65;;;17.67;;
77304;SDS011;66364;52.622;7.746;2023-02-15T06:52:20;21.93;;;16.67;;
77304;SDS011;66364;52.622;7.746;2023-02-15T06:54:21;19.87;;;15.25;;
77304;SDS011;66364;52.622;7.746;2023-02-15T06:56:22;22.23;;;18.27;;
77304;SDS011;66364;52.622;7.746;2023-02-15T06:58:23;19.95;;;17.00;;
77304;SDS011;66364;52.622;7.746;2023-02-15T07:00:25;20.40;;;17.27;;
77304;SDS011;66364;52.622;7.746;2023-02-15T07:02:26;19.12;;;16.35;;
77304;SDS011;66364;52.622;7.746;2023-02-15T07:04:27;23.47;;;17.43;;
77304;SDS011;66364;52.622;7.746;2023-02-15T07:06:33;27.87;;;20.40;;
77304;SDS011;66364;52.622;7.746;2023-02-15T07:08:40;27.62;;;20.12;;
77304;SDS011;66364;52.622;7.746;2023-02-15T07:10:45;25.97;;;19.00;;
77304;SDS011;66364;52.622;7.746;2023-02-15T07:12:46;26.25;;;21.17;;
77304;SDS011;66364;52.622;7.746;2023-02-15T07:14:48;23.30;;;18.62;;
77304;SDS011;66364;52.622;7.746;2023-02-15T07:16:49;23.60;;;19.30;;
77304;SDS011;66364;52.622;7.746;2023-02-15T07:18:49;26.20;;;21.00;;
77304;SDS011;66364;52.622;7.746;2023-02-15T07:20:50;24.50;;;19.40;;
77304;SDS011;66364;52.622;7.746;2023-02-15T07:22:51;22.67;;;18.43;;
77304;SDS011;66364;52.622;7.746;2023-02-15T07:24:52;23.50;;;19.05;;
77304;SDS011;66364;52.622;7.746;2023-02-15T07:26:53;22.90;;;18.23;;
77304;SDS011;66364;52.622;7.746;2023-02-15T07:28:54;25.07;;;19.47;;
77304;SDS011;66364;52.622;7.746;2023-02-15T07:30:55;24.18;;;19.15;;
77304;SDS011;66364;52.622;7.746;2023-02-15T07:32:56;23.47;;;20.30;;
77304;SDS011;66364;52.622;7.746;2023-02-15T07:34:58;23.42;;;18.65;;
77304;SDS011;66364;52.622;7.746;2023-02-15T07:36:59;27.93;;;19.75;;
77304;SDS011;66364;52.622;7.746;2023-02-15T07:39:00;25.25;;;19.37;;
77304;SDS011;66364;52.622;7.746;2023-02-15T07:41:03;24.05;;;20.37;;
77304;SDS011;66364;52.622;7.746;2023-02-15T07:43:07;24.65;;;20.12;;
77304;SDS011;66364;52.622;7.746;2023-02-15T07:45:08;23.18;;;18.98;;
77304;SDS011;66364;52.622;7.746;2023-02-15T07:47:09;27.00;;;21.07;;
77304;SDS011;66364;52.622;7.746;2023-02-15T07:49:10;31.68;;;24.07;;
77304;SDS011;66364;52.622;7.746;2023-02-15T07:51:12;32.55;;;23.83;;
77304;SDS011;66364;52.622;7.746;2023-02-15T07:53:13;32.17;;;25.90;;
77304;SDS011;66364;52.622;7.746;2023-02-15T07:55:14;33.23;;;27.20;;
77304;SDS011;66364;52.622;7.746;2023-02-15T07:57:17;33.88;;;24.57;;
77304;SDS011;66364;52.622;7.746;2023-02-15T07:59:19;30.27;;;24.85;;
77304;SDS011;66364;52.622;7.746;2023-02-15T08:01:29;26.48;;;22.60;;
77304;SDS011;66364;52.622;7.746;2023-02-15T08:03:32;27.35;;;22.42;;
77304;SDS011;66364;52.622;7.746;2023-02-15T08:05:33;30.67;;;22.07;;
77304;SDS011;66364;52.622;7.746;2023-02-15T08:07:34;30.60;;;26.10;;
77304;SDS011;66364;52.622;7.746;2023-02-15T08:09:35;27.23;;;24.03;;
77304;SDS011;66364;52.622;7.746;2023-02-15T08:11:37;27.02;;;24.12;;
77304;SDS011;66364;52.622;7.746;2023-02-15T08:13:38;35.35;;;24.25;;
77304;SDS011;66364;52.622;7.746;2023-02-15T08:15:47;28.62;;;24.10;;
77304;SDS011;66364;52.622;7.746;2023-02-15T08:17:51;27.65;;;22.48;;
77304;SDS011;66364;52.622;7.746;2023-02-15T08:19:52;25.70;;;21.02;;
77304;SDS011;66364;52.622;7.746;2023-02-15T08:22:00;24.63;;;22.00;;
77304;SDS011;66364;52.622;7.746;2023-02-15T08:24:04;27.45;;;22.07;;
77304;SDS011;66364;52.622;7.746;2023-02-15T08:26:06;27.22;;;24.30;;
77304;SDS011;66364;52.622;7.746;2023-02-15T08:28:07;29.98;;;24.02;;
77304;SDS011;66364;52.622;7.746;2023-02-15T08:30:10;27.10;;;24.07;;
77304;SDS011;66364;52.622;7.746;2023-02-15T08:32:12;29.37;;;25.35;;
77304;SDS011;66364;52.622;7.746;2023-02-15T08:34:14;25.80;;;23.00;;
77304;SDS011;66364;52.622;7.746;2023-02-15T08:36:19;25.50;;;22.82;;
77304;SDS011;66364;52.622;7.746;2023-02-15T08:38:22;22.80;;;20.37;;
77304;SDS011;66364;52.622;7.746;2023-02-15T08:40:23;28.50;;;21.70;;
77304;SDS011;66364;52.622;7.746;2023-02-15T08:42:24;23.63;;;20.10;;
77304;SDS011;66364;52.622;7.746;2023-02-15T08:44:24;25.60;;;22.50;;
77304;SDS011;66364;52.622;7.746;2023-02-15T08:46:27;26.07;;;21.37;;
77304;SDS011;66364;52.622;7.746;2023-02-15T08:48:30;23.98;;;21.00;;
77304;SDS011;66364;52.622;7.746;2023-02-15T08:50:31;23.05;;;20.40;;
77304;SDS011;66364;52.622;7.746;2023-02-15T08:52:32;23.22;;;20.70;;
77304;SDS011;66364;52.622;7.746;2023-02-15T08:54:33;23.50;;;20.60;;
77304;SDS011;66364;52.622;7.746;2023-02-15T08:56:36;24.90;;;21.10;;
77304;SDS011;66364;52.622;7.746;2023-02-15T08:58:38;22.27;;;19.67;;
77304;SDS011;66364;52.622;7.746;2023-02-15T09:00:39;26.87;;;23.55;;
77304;SDS011;66364;52.622;7.746;2023-02-15T09:02:40;30.88;;;23.75;;
77304;SDS011;66364;52.622;7.746;2023-02-15T09:04:42;28.95;;;23.40;;
77304;SDS011;66364;52.622;7.746;2023-02-15T09:06:44;26.70;;;24.00;;
77304;SDS011;66364;52.622;7.746;2023-02-15T09:08:46;23.45;;;21.05;;
77304;SDS011;66364;52.622;7.746;2023-02-15T09:10:47;26.65;;;22.90;;
77304;SDS011;66364;52.622;7.746;2023-02-15T09:12:49;23.80;;;21.45;;
77304;SDS011;66364;52.622;7.746;2023-02-15T09:14:49;25.87;;;23.17;;
77304;SDS011;66364;52.622;7.746;2023-02-15T09:16:51;25.93;;;22.33;;
77304;SDS011;66364;52.622;7.746;2023-02-15T09:18:53;24.47;;;21.95;;
77304;SDS011;66364;52.622;7.746;2023-02-15T09:20:55;24.95;;;22.42;;
77304;SDS011;66364;52.622;7.746;2023-02-15T09:22:56;24.87;;;22.17;;
77304;SDS011;66364;52.622;7.746;2023-02-15T09:24:58;25.08;;;22.13;;
77304;SDS011;66364;52.622;7.746;2023-02-15T09:26:59;23.10;;;20.70;;
77304;SDS011;66364;52.622;7.746;2023-02-15T09:29:00;24.30;;;21.70;;
77304;SDS011;66364;52.622;7.746;2023-02-15T09:31:12;23.92;;;21.45;;
77304;SDS011;66364;52.622;7.746;2023-02-15T09:33:14;27.40;;;22.17;;
77304;SDS011;66364;52.622;7.746;2023-02-15T09:35:16;25.95;;;23.27;;
77304;SDS011;66364;52.622;7.746;2023-02-15T09:37:17;26.68;;;23.80;;
77304;SDS011;66364;52.622;7.746;2023-02-15T09:39:22;26.30;;;23.63;;
77304;SDS011;66364;52.622;7.746;2023-02-15T09:43:42;28.62;;;25.50;;
77304;SDS011;66364;52.622;7.746;2023-02-15T09:45:58;27.80;;;24.87;;
77304;SDS011;66364;52.622;7.746;2023-02-15T09:48:15;29.80;;;26.15;;
77304;SDS011;66364;52.622;7.746;2023-02-15T09:56:50;28.00;;;25.20;;
77304;SDS011;66364;52.622;7.746;2023-02-15T10:01:00;30.20;;;24.95;;
77304;SDS011;66364;52.622;7.746;2023-02-15T10:03:13;28.42;;;25.52;;
77304;SDS011;66364;52.622;7.746;2023-02-15T10:20:54;27.20;;;24.47;;
77304;SDS011;66364;52.622;7.746;2023-02-15T10:25:07;28.23;;;25.10;;
77304;SDS011;66364;52.622;7.746;2023-02-15T10:27:19;29.95;;;26.90;;
77304;SDS011;66364;52.622;7.746;2023-02-15T10:29:25;30.15;;;26.23;;
77304;SDS011;66364;52.622;7.746;2023-02-15T10:31:27;30.65;;;26.30;;
77304;SDS011;66364;52.622;7.746;2023-02-15T10:33:52;30.82;;;27.73;;
77304;SDS011;66364;52.622;7.746;2023-02-15T10:39:05;33.02;;;27.50;;
77304;SDS011;66364;52.622;7.746;2023-02-15T10:45:42;29.02;;;25.82;;
77304;SDS011;66364;52.622;7.746;2023-02-15T10:54:50;34.53;;;25.95;;
77304;SDS011;66364;52.622;7.746;2023-02-15T10:57:15;29.70;;;26.12;;
77304;SDS011;66364;52.622;7.746;2023-02-15T11:03:57;32.13;;;28.62;;
77304;SDS011;66364;52.622;7.746;2023-02-15T11:06:12;31.42;;;26.97;;
77304;SDS011;66364;52.622;7.746;2023-02-15T11:08:16;31.15;;;28.02;;
77304;SDS011;66364;52.622;7.746;2023-02-15T11:10:22;30.80;;;27.40;;
77304;SDS011;66364;52.622;7.746;2023-02-15T11:12:35;30.55;;;27.25;;
77304;SDS011;66364;52.622;7.746;2023-02-15T11:14:38;32.03;;;27.60;;
77304;SDS011;66364;52.622;7.746;2023-02-15T11:17:02;31.75;;;28.20;;
77304;SDS011;66364;52.622;7.746;2023-02-15T11:21:26;29.37;;;26.17;;
77304;SDS011;66364;52.622;7.746;2023-02-15T11:23:29;29.35;;;26.12;;
77304;SDS011;66364;52.622;7.746;2023-02-15T11:25:33;33.48;;;27.35;;
77304;SDS011;66364;52.622;7.746;2023-02-15T11:27:36;30.45;;;26.50;;
77304;SDS011;66364;52.622;7.746;2023-02-15T11:29:40;33.60;;;27.50;;
77304;SDS011;66364;52.622;7.746;2023-02-15T11:31:44;32.30;;;27.22;;
77304;SDS011;66364;52.622;7.746;2023-02-15T11:33:51;31.37;;;25.57;;
77304;SDS011;66364;52.622;7.746;2023-02-15T11:36:05;33.23;;;28.12;;
77304;SDS011;66364;52.622;7.746;2023-02-15T11:38:16;35.35;;;29.10;;
77304;SDS011;66364;52.622;7.746;2023-02-15T11:40:34;29.48;;;26.27;;
77304;SDS011;66364;52.622;7.746;2023-02-15T11:42:38;34.20;;;30.50;;
77304;SDS011;66364;52.622;7.746;2023-02-15T11:47:07;31.30;;;27.98;;
77304;SDS011;66364;52.622;7.746;2023-02-15T11:49:18;36.00;;;26.87;;
77304;SDS011;66364;52.622;7.746;2023-02-15T11:51:19;33.45;;;28.32;;
77304;SDS011;66364;52.622;7.746;2023-02-15T11:53:22;30.95;;;27.07;;
77304;SDS011;66364;52.622;7.746;2023-02-15T11:55:24;30.08;;;26.27;;
77304;SDS011;66364;52.622;7.746;2023-02-15T11:57:28;31.05;;;25.88;;
77304;SDS011;66364;52.622;7.746;2023-02-15T11:59:32;31.48;;;28.02;;
77304;SDS011;66364;52.622;7.746;2023-02-15T12:01:41;32.08;;;27.20;;
77304;SDS011;66364;52.622;7.746;2023-02-15T12:03:46;32.42;;;27.82;;
77304;SDS011;66364;52.622;7.746;2023-02-15T12:05:49;30.40;;;27.17;;
77304;SDS011;66364;52.622;7.746;2023-02-15T12:08:03;31.00;;;27.62;;
77304;SDS011;66364;52.622;7.746;2023-02-15T12:12:32;27.93;;;24.92;;
77304;SDS011;66364;52.622;7.746;2023-02-15T12:14:46;31.77;;;28.32;;
77304;SDS011;66364;52.622;7.746;2023-02-15T12:16:50;28.32;;;25.32;;
77304;SDS011;66364;52.622;7.746;2023-02-15T12:18:55;28.45;;;25.32;;
77304;SDS011;66364;52.622;7.746;2023-02-15T12:20:59;30.17;;;26.95;;
77304;SDS011;66364;52.622;7.746;2023-02-15T12:23:04;29.95;;;25.92;;
77304;SDS011;66364;52.622;7.746;2023-02-15T12:25:21;31.62;;;27.22;;
77304;SDS011;66364;52.622;7.746;2023-02-15T12:27:26;30.60;;;26.70;;
77304;SDS011;66364;52.622;7.746;2023-02-15T12:29:30;35.75;;;27.65;;
77304;SDS011;66364;52.622;7.746;2023-02-15T12:31:36;30.23;;;27.32;;
77304;SDS011;66364;52.622;7.746;2023-02-15T12:33:43;31.62;;;27.70;;
77304;SDS011;66364;52.622;7.746;2023-02-15T12:35:45;28.52;;;25.48;;
77304;SDS011;66364;52.622;7.746;2023-02-15T12:38:48;31.02;;;27.45;;
77304;SDS011;66364;52.622;7.746;2023-02-15T12:40:18;30.52;;;25.43;;
77304;SDS011;66364;52.622;7.746;2023-02-15T12:42:23;29.23;;;25.65;;
77304;SDS011;66364;52.622;7.746;2023-02-15T12:44:26;30.48;;;25.30;;
77304;SDS011;66364;52.622;7.746;2023-02-15T12:46:29;30.30;;;27.10;;
77304;SDS011;66364;52.622;7.746;2023-02-15T12:48:31;30.12;;;26.95;;
77304;SDS011;66364;52.622;7.746;2023-02-15T12:50:32;30.10;;;26.87;;
77304;SDS011;66364;52.622;7.746;2023-02-15T12:52:33;29.27;;;26.27;;
77304;SDS011;66364;52.622;7.746;2023-02-15T12:54:41;33.73;;;27.77;;
77304;SDS011;66364;52.622;7.746;2023-02-15T12:56:42;29.50;;;26.30;;
77304;SDS011;66364;52.622;7.746;2023-02-15T12:58:43;31.37;;;26.73;;
77304;SDS011;66364;52.622;7.746;2023-02-15T13:00:44;30.27;;;27.17;;
77304;SDS011;66364;52.622;7.746;2023-02-15T13:02:47;30.85;;;27.58;;
77304;SDS011;66364;52.622;7.746;2023-02-15T13:04:50;30.77;;;27.42;;
77304;SDS011;66364;52.622;7.746;2023-02-15T13:06:54;30.77;;;26.97;;
77304;SDS011;66364;52.622;7.746;2023-02-15T13:08:59;30.30;;;27.10;;
77304;SDS011;66364;52.622;7.746;2023-02-15T13:11:03;29.63;;;25.75;;
77304;SDS011;66364;52.622;7.746;2023-02-15T13:13:14;28.83;;;25.60;;
77304;SDS011;66364;52.622;7.746;2023-02-15T13:15:23;33.02;;;27.00;;
77304;SDS011;66364;52.622;7.746;2023-02-15T13:17:27;28.45;;;24.52;;
77304;SDS011;66364;52.622;7.746;2023-02-15T13:19:33;28.40;;;25.32;;
77304;SDS011;66364;52.622;7.746;2023-02-15T13:21:44;29.37;;;26.15;;
77304;SDS011;66364;52.622;7.746;2023-02-15T13:23:48;31.05;;;26.93;;
77304;SDS011;66364;52.622;7.746;2023-02-15T13:26:00;29.32;;;25.75;;